createdAt,value
2022-12-09T03:13:28.274Z,28.33
2022-12-09T03:16:01.807Z,28.60
2022-12-09T03:18:32.916Z,27.63
2022-12-09T03:21:01.556Z,25.52
2022-12-09T03:23:30.961Z,24.98
2022-12-09T03:25:59.813Z,28.13
2022-12-09T03:28:33.013Z,26.10
2022-12-09T03:31:05.587Z,25.45
2022-12-09T03:33:32.982Z,25.95
2022-12-09T03:36:04.229Z,25.60
2022-12-09T03:38:36.318Z,25.70
2022-12-09T03:41:30.478Z,24.38
2022-12-09T03:44:10.460Z,24.75
2022-12-09T03:46:37.800Z,25.52
2022-12-09T03:49:04.960Z,28.38
2022-12-09T03:51:49.757Z,29.13
2022-12-09T03:54:24.279Z,24.20
2022-12-09T03:56:54.938Z,21.65
2022-12-09T03:59:24.997Z,20.90
2022-12-09T04:01:52.853Z,22.02
2022-12-09T04:04:19.853Z,19.02
2022-12-09T04:06:48.413Z,19.35
2022-12-09T04:09:15.654Z,28.05
2022-12-09T04:11:44.003Z,22.50
2022-12-09T04:14:15.513Z,21.02
2022-12-09T04:16:44.794Z,21.08
2022-12-09T04:19:12.454Z,17.88
2022-12-09T04:21:39.859Z,18.15
2022-12-09T04:24:07.471Z,16.27
2022-12-09T04:26:34.969Z,16.83
2022-12-09T04:29:03.696Z,16.88
2022-12-09T04:31:30.844Z,19.42
2022-12-09T04:33:57.731Z,18.50
2022-12-09T04:36:24.525Z,17.25
2022-12-09T04:38:51.727Z,15.32
2022-12-09T04:41:18.916Z,17.10
2022-12-09T04:43:45.863Z,15.73
2022-12-09T04:46:16.272Z,16.60
2022-12-09T04:48:43.918Z,14.80
2022-12-09T04:51:13.075Z,16.25
2022-12-09T04:53:40.859Z,14.43
2022-12-09T04:56:21.486Z,15.27
2022-12-09T04:58:50.177Z,15.77
2022-12-09T05:01:24.785Z,16.17
2022-12-09T05:03:55.562Z,15.65
2022-12-09T05:06:23.737Z,15.80
2022-12-09T05:08:51.327Z,15.30
2022-12-09T05:11:20.066Z,17.30
2022-12-09T05:13:47.909Z,15.70
2022-12-09T05:16:17.477Z,15.35
2022-12-09T05:18:46.586Z,16.10
2022-12-09T05:21:18.910Z,16.33
2022-12-09T05:23:48.907Z,17.00
2022-12-09T05:26:18.765Z,15.25
2022-12-09T05:28:46.999Z,16.42
2022-12-09T05:31:17.197Z,17.13
2022-12-09T05:33:45.836Z,16.42
2022-12-09T05:36:15.077Z,17.25
2022-12-09T05:38:42.436Z,16.80
2022-12-09T05:41:09.834Z,19.40
2022-12-09T05:43:37.278Z,17.77
2022-12-09T05:46:06.017Z,16.83
2022-12-09T05:48:33.842Z,17.80
2022-12-09T05:51:04.197Z,16.83
2022-12-09T05:53:32.130Z,16.15
2022-12-09T05:55:59.189Z,16.67
2022-12-09T05:58:26.416Z,16.63
2022-12-09T06:00:56.728Z,17.10
2022-12-09T06:03:25.576Z,18.38
2022-12-09T06:05:52.784Z,16.67
2022-12-09T06:08:21.154Z,16.88
2022-12-09T06:10:48.283Z,18.77
2022-12-09T06:13:15.868Z,18.23
2022-12-09T06:15:43.089Z,17.63
2022-12-09T06:18:10.721Z,17.13
2022-12-09T06:20:42.460Z,17.58
2022-12-09T06:23:09.710Z,16.90
2022-12-09T06:25:36.962Z,17.95
2022-12-09T06:28:04.728Z,17.70
2022-12-09T06:30:31.973Z,17.00
2022-12-09T06:33:00.554Z,16.98
2022-12-09T06:35:28.478Z,18.83
2022-12-09T06:37:55.794Z,18.40
2022-12-09T06:40:24.304Z,17.27
2022-12-09T06:42:52.036Z,22.40
2022-12-09T06:45:21.183Z,22.55
2022-12-09T06:47:48.526Z,22.45
2022-12-09T06:50:16.243Z,25.33
2022-12-09T06:52:43.590Z,24.42
2022-12-09T06:55:11.331Z,29.08
2022-12-09T06:57:38.883Z,24.15
2022-12-09T07:00:07.157Z,21.85
2022-12-09T07:02:36.634Z,21.75
2022-12-09T07:05:04.694Z,20.38
2022-12-09T07:07:34.056Z,20.38
2022-12-09T07:10:11.363Z,19.83
2022-12-09T07:12:38.386Z,19.10
2022-12-09T07:15:06.594Z,21.83
2022-12-09T07:17:34.651Z,21.00
2022-12-09T07:20:06.796Z,20.15
2022-12-09T07:22:34.463Z,21.15
2022-12-09T07:25:02.300Z,21.63
2022-12-09T07:27:29.842Z,20.10
2022-12-09T07:29:58.419Z,19.02
2022-12-09T07:32:25.784Z,19.73
2022-12-09T07:34:53.480Z,20.15
2022-12-09T07:37:20.650Z,20.48
2022-12-09T07:39:47.894Z,19.85
2022-12-09T07:42:15.065Z,20.73
2022-12-09T07:44:42.464Z,20.92
2022-12-09T07:47:09.970Z,21.05
2022-12-09T07:49:37.402Z,21.17
2022-12-09T07:52:04.972Z,20.90
2022-12-09T07:54:32.581Z,21.20
2022-12-09T07:56:59.767Z,21.30
2022-12-09T07:59:27.897Z,22.58
2022-12-09T08:01:54.955Z,24.05
2022-12-09T08:04:22.626Z,27.27
2022-12-09T08:06:50.138Z,24.50
2022-12-09T08:09:17.601Z,24.08
2022-12-09T08:11:44.744Z,22.88
2022-12-09T08:14:13.383Z,21.70
2022-12-09T08:16:46.984Z,22.75
2022-12-09T08:19:14.682Z,23.15
2022-12-09T08:21:42.572Z,22.95
2022-12-09T08:24:12.625Z,22.30
2022-12-09T08:26:40.415Z,22.65
2022-12-09T08:29:10.075Z,25.25
2022-12-09T08:31:41.618Z,24.17
2022-12-09T08:34:09.996Z,24.98
2022-12-09T08:36:37.907Z,26.02
2022-12-09T08:39:06.125Z,25.23
2022-12-09T08:41:37.606Z,25.98
2022-12-09T08:44:20.406Z,25.40
2022-12-09T08:46:50.423Z,27.25
2022-12-09T08:49:21.326Z,26.08
2022-12-09T08:51:50.317Z,25.23
2022-12-09T08:54:17.394Z,25.67
2022-12-09T08:56:46.974Z,25.10
2022-12-09T08:59:16.068Z,26.63
2022-12-09T09:01:43.261Z,26.75
2022-12-09T09:04:13.630Z,28.52
2022-12-09T09:06:42.480Z,30.23
2022-12-09T09:09:11.858Z,35.72
2022-12-09T09:11:40.591Z,33.20
2022-12-09T09:14:10.302Z,33.15
2022-12-09T09:16:40.899Z,42.78
2022-12-09T09:19:08.939Z,34.80
2022-12-09T09:21:36.225Z,33.45
2022-12-09T09:24:09.483Z,33.35
2022-12-09T09:26:40.680Z,35.25
2022-12-09T09:29:08.682Z,30.85
2022-12-09T09:31:35.998Z,26.77
2022-12-09T09:34:05.037Z,27.65
2022-12-09T09:36:32.178Z,26.27
2022-12-09T09:39:00.237Z,26.00
2022-12-09T09:41:51.996Z,26.02
2022-12-09T09:44:22.607Z,23.95
2022-12-09T09:46:51.666Z,23.83
2022-12-09T09:49:30.083Z,23.58
2022-12-09T09:51:58.511Z,25.23
2022-12-09T09:54:26.219Z,26.42
2022-12-09T09:57:18.052Z,26.63
2022-12-09T10:05:26.685Z,26.95
2022-12-09T10:08:13.670Z,29.70
2022-12-09T10:10:47.319Z,29.48
2022-12-09T10:13:33.009Z,32.33
2022-12-09T10:16:21.990Z,32.65
2022-12-09T10:19:18.022Z,32.60
2022-12-09T10:21:47.556Z,39.53
2022-12-09T10:24:28.460Z,39.28
2022-12-09T10:27:01.627Z,24.50
2022-12-09T10:30:06.591Z,36.63
2022-12-09T10:32:36.571Z,37.03
2022-12-09T10:35:15.481Z,37.88
2022-12-09T10:37:43.677Z,36.78
2022-12-09T10:40:11.091Z,37.72
2022-12-09T10:43:15.303Z,41.33
2022-12-09T10:46:16.667Z,37.70
2022-12-09T10:48:38.514Z,39.28
2022-12-09T10:51:12.417Z,39.35
2022-12-09T10:54:00.036Z,37.78
2022-12-09T11:08:00.802Z,37.17
2022-12-09T11:10:30.812Z,37.47
2022-12-09T11:13:06.372Z,35.05
2022-12-09T11:15:45.015Z,34.30
2022-12-09T11:18:26.614Z,34.42
2022-12-09T11:21:07.941Z,35.20
2022-12-09T11:23:36.238Z,34.30
2022-12-09T11:26:07.751Z,35.63
2022-12-09T11:28:40.509Z,36.22
2022-12-09T11:31:29.633Z,34.22
2022-12-09T11:34:04.297Z,33.63
2022-12-09T11:36:44.329Z,36.10
2022-12-09T11:39:23.438Z,35.40
2022-12-09T11:42:17.217Z,34.88
2022-12-09T11:45:05.760Z,33.83
2022-12-09T11:50:36.663Z,37.47
2022-12-09T11:53:12.027Z,34.28
2022-12-09T11:55:58.278Z,32.65
2022-12-09T11:58:38.008Z,30.88
2022-12-09T12:01:22.568Z,34.00
2022-12-09T12:03:53.110Z,33.58
2022-12-09T12:06:23.426Z,30.83
2022-12-09T12:09:01.754Z,56.00
2022-12-09T12:11:36.823Z,32.95
2022-12-09T12:14:10.335Z,29.60
2022-12-09T12:17:02.801Z,31.30
2022-12-09T12:19:39.840Z,30.70
2022-12-09T12:22:37.330Z,29.75
2022-12-09T12:25:31.410Z,29.23
2022-12-09T12:28:01.422Z,27.73
2022-12-09T12:31:09.602Z,28.60
2022-12-09T12:34:26.185Z,30.45
2022-12-09T12:37:14.280Z,29.50
2022-12-09T12:40:23.446Z,30.33
2022-12-09T12:43:38.287Z,34.10
2022-12-09T12:46:35.514Z,31.77
2022-12-09T12:49:17.302Z,32.97
2022-12-09T12:52:05.429Z,31.48
2022-12-09T12:54:41.410Z,30.73
2022-12-09T12:57:19.919Z,33.08
2022-12-09T13:00:13.322Z,32.40
2022-12-09T13:03:16.579Z,32.28
2022-12-09T13:05:47.772Z,31.17
2022-12-09T13:08:25.734Z,33.15
2022-12-09T13:11:01.991Z,30.65
2022-12-09T13:13:44.178Z,31.80
2022-12-09T13:16:28.185Z,29.48
2022-12-09T13:19:21.719Z,31.30
2022-12-09T13:21:49.439Z,28.92
2022-12-09T13:24:42.288Z,30.83
2022-12-09T13:28:07.368Z,32.45
2022-12-09T13:30:49.681Z,28.40
2022-12-09T13:33:42.844Z,30.27
2022-12-09T13:36:18.133Z,29.45
2022-12-09T13:38:45.253Z,44.17
2022-12-09T13:41:27.554Z,40.30
2022-12-09T13:44:11.551Z,33.40
2022-12-09T13:46:38.946Z,29.40
2022-12-09T13:49:12.001Z,36.13
2022-12-09T13:51:48.408Z,26.23
2022-12-09T13:54:21.335Z,27.52
2022-12-09T13:57:02.797Z,25.38
2022-12-09T13:59:39.988Z,24.42
2022-12-09T14:02:15.603Z,27.27
2022-12-09T14:05:05.588Z,29.52
2022-12-09T14:08:19.571Z,29.20
2022-12-09T14:10:50.325Z,27.88
2022-12-09T14:13:33.382Z,28.98
2022-12-09T14:16:27.414Z,64.20
2022-12-09T14:18:56.244Z,48.33
2022-12-09T14:21:26.899Z,112.15
2022-12-09T14:24:12.015Z,138.60
2022-12-09T14:26:44.514Z,97.65
2022-12-09T14:29:11.822Z,43.47
2022-12-09T14:32:02.480Z,58.15
2022-12-09T14:34:34.769Z,89.82
2022-12-09T14:37:11.007Z,163.95
2022-12-09T14:40:16.757Z,73.70
2022-12-09T14:43:18.964Z,123.13
2022-12-09T14:46:00.497Z,43.15
2022-12-09T14:51:19.451Z,33.40
2022-12-09T14:53:55.582Z,38.67
2022-12-09T14:56:24.735Z,34.72
2022-12-09T14:59:01.482Z,32.78
2022-12-09T15:01:28.347Z,33.90
2022-12-09T15:03:59.948Z,36.33
2022-12-09T15:06:27.283Z,30.95
2022-12-09T15:08:59.010Z,35.75
2022-12-09T15:11:34.683Z,46.60
2022-12-09T15:14:25.551Z,38.90
2022-12-09T15:16:53.274Z,43.65
2022-12-09T15:19:57.929Z,40.97
2022-12-09T15:22:22.113Z,63.17
2022-12-09T15:24:51.115Z,64.25
2022-12-09T15:27:21.423Z,50.65
2022-12-09T15:29:48.452Z,47.90
2022-12-09T15:32:24.943Z,42.83
2022-12-09T15:34:53.229Z,42.58
2022-12-09T15:37:27.162Z,37.13
2022-12-09T15:40:09.075Z,33.70
2022-12-09T15:42:41.746Z,33.35
2022-12-09T15:45:08.912Z,32.05
2022-12-09T15:47:51.609Z,30.90
2022-12-09T15:50:34.301Z,32.45
2022-12-09T15:53:15.033Z,34.40
2022-12-09T15:55:47.005Z,34.25
2022-12-09T15:58:17.811Z,33.47
2022-12-09T16:00:49.165Z,32.35
2022-12-09T16:03:19.215Z,32.08
2022-12-09T16:05:56.120Z,44.70
2022-12-09T16:08:30.946Z,74.75
2022-12-09T16:10:58.698Z,65.22
2022-12-09T16:13:26.220Z,71.80
2022-12-09T16:15:56.027Z,68.35
2022-12-09T16:18:34.152Z,45.55
2022-12-09T16:21:33.655Z,41.65
2022-12-09T16:24:13.071Z,38.22
2022-12-09T16:26:45.783Z,34.63
2022-12-09T16:29:31.610Z,38.97
2022-12-09T16:32:18.824Z,40.42
2022-12-09T16:34:47.514Z,37.75
2022-12-09T16:37:32.863Z,42.28
2022-12-09T16:40:00.309Z,44.95
2022-12-09T16:42:30.104Z,49.83
2022-12-09T16:45:36.052Z,43.25
2022-12-09T16:48:03.375Z,43.28
2022-12-09T16:50:52.209Z,52.13
2022-12-09T16:53:33.880Z,52.47
2022-12-09T16:58:33.565Z,41.10
2022-12-09T17:01:03.272Z,38.53
2022-12-09T17:03:43.828Z,42.63
2022-12-09T17:06:14.896Z,44.78
2022-12-09T17:08:43.461Z,44.63
2022-12-09T17:11:11.535Z,43.38
2022-12-09T17:13:39.710Z,43.70
2022-12-09T17:16:09.823Z,49.60
2022-12-09T17:18:36.730Z,46.67
2022-12-09T17:21:10.859Z,45.50
2022-12-09T17:23:40.215Z,44.13
2022-12-09T17:26:10.683Z,49.30
2022-12-09T17:28:40.096Z,67.07
2022-12-09T17:31:10.383Z,61.13
2022-12-09T17:33:38.412Z,45.70
2022-12-09T17:36:06.439Z,66.90
2022-12-09T17:38:34.407Z,69.88
2022-12-09T17:41:11.389Z,85.35
2022-12-09T17:43:38.319Z,76.00
2022-12-09T17:46:06.680Z,56.33
2022-12-09T17:48:35.311Z,87.38
2022-12-09T17:51:07.737Z,61.95
2022-12-09T17:53:39.438Z,50.42
2022-12-09T17:56:18.380Z,52.53
2022-12-09T17:58:46.010Z,56.08
2022-12-09T18:01:24.504Z,81.18
2022-12-09T18:03:58.432Z,59.85
2022-12-09T18:06:35.214Z,61.55
2022-12-09T18:09:04.101Z,54.25
2022-12-09T18:11:31.273Z,71.65
2022-12-09T18:13:58.572Z,82.65
2022-12-09T18:16:29.348Z,52.03
2022-12-09T18:19:02.486Z,52.05
2022-12-09T18:21:36.967Z,50.03
2022-12-09T18:24:05.304Z,44.50
2022-12-09T18:26:38.162Z,43.00
2022-12-09T18:29:09.684Z,154.02
2022-12-09T18:31:38.027Z,175.77
2022-12-09T18:34:17.008Z,131.48
2022-12-09T18:36:51.245Z,181.90
2022-12-09T18:39:19.717Z,69.93
2022-12-09T18:41:46.723Z,127.60
2022-12-09T18:44:15.623Z,75.70
2022-12-09T18:46:47.259Z,124.32
2022-12-09T18:49:17.470Z,112.43
2022-12-09T18:51:46.251Z,101.40
2022-12-09T18:54:24.588Z,98.78
2022-12-09T18:56:53.443Z,161.60
2022-12-09T18:59:24.225Z,108.00
2022-12-09T19:01:55.356Z,53.15
2022-12-09T19:04:29.986Z,50.03
2022-12-09T19:07:00.081Z,67.30
2022-12-09T19:09:33.308Z,62.55
2022-12-09T19:12:38.271Z,61.50
2022-12-09T19:14:55.177Z,49.08
2022-12-09T19:17:23.650Z,43.58
2022-12-09T19:19:55.042Z,43.58
2022-12-09T19:22:26.097Z,46.08
2022-12-09T19:24:53.274Z,48.22
2022-12-09T19:27:23.770Z,47.70
2022-12-09T19:29:51.181Z,48.33
2022-12-09T19:32:51.531Z,49.13
2022-12-09T19:35:11.634Z,45.38
2022-12-09T19:37:39.806Z,47.08
2022-12-09T19:40:08.906Z,48.75
2022-12-09T19:42:38.408Z,44.38
2022-12-09T19:45:13.723Z,43.83
2022-12-09T19:47:44.602Z,150.23
2022-12-09T19:50:11.930Z,47.90
2022-12-09T19:52:39.751Z,44.30
2022-12-09T19:55:09.055Z,42.28
2022-12-09T19:57:37.807Z,55.03
2022-12-09T20:00:13.408Z,53.05
2022-12-09T20:02:46.118Z,52.40
2022-12-09T20:05:13.080Z,47.80
2022-12-09T20:07:40.900Z,50.53
2022-12-09T20:10:10.290Z,48.72
2022-12-09T20:12:39.022Z,49.55
2022-12-09T20:15:07.333Z,43.47
2022-12-09T20:17:34.603Z,43.67
2022-12-09T20:20:06.184Z,45.30
2022-12-09T20:22:36.551Z,47.42
2022-12-09T20:25:06.213Z,45.80
2022-12-09T20:27:34.544Z,43.10
2022-12-09T20:30:03.870Z,44.60
2022-12-09T20:32:37.303Z,57.60
2022-12-09T20:35:08.295Z,50.42
2022-12-09T20:37:37.070Z,48.92
2022-12-09T20:40:08.130Z,46.05
2022-12-09T20:42:36.670Z,63.08
2022-12-09T20:45:12.142Z,51.95
2022-12-09T20:47:41.528Z,44.05
2022-12-09T20:50:10.895Z,41.75
2022-12-09T20:52:51.400Z,43.17
2022-12-09T20:55:23.401Z,53.45
2022-12-09T20:57:51.642Z,49.80
2022-12-09T21:00:21.217Z,52.45
2022-12-09T21:02:49.144Z,44.45
2022-12-09T21:05:16.254Z,44.90
2022-12-09T21:07:44.148Z,56.83
2022-12-09T21:10:11.437Z,57.22
2022-12-09T21:12:38.851Z,44.70
2022-12-09T21:15:07.834Z,46.22
2022-12-09T21:17:37.487Z,50.15
2022-12-09T21:20:05.470Z,47.53
2022-12-09T21:22:35.565Z,50.92
2022-12-09T21:25:03.945Z,52.60
2022-12-09T21:27:34.319Z,53.67
2022-12-09T21:30:02.715Z,51.42
2022-12-09T21:32:31.140Z,51.13
2022-12-09T21:34:58.787Z,50.53
2022-12-09T21:37:25.628Z,49.38
2022-12-09T21:39:52.759Z,58.63
2022-12-09T21:42:20.273Z,51.65
2022-12-09T21:44:48.465Z,50.83
2022-12-09T21:47:17.022Z,47.92
2022-12-09T21:49:48.703Z,51.45
2022-12-09T21:52:15.778Z,51.05
2022-12-09T21:54:44.948Z,47.03
2022-12-09T21:57:14.058Z,49.70
2022-12-09T21:59:41.297Z,47.47
2022-12-09T22:02:09.558Z,43.47
2022-12-09T22:04:38.122Z,43.35
2022-12-09T22:07:04.996Z,43.65
2022-12-09T22:09:32.040Z,44.75
2022-12-09T22:11:58.869Z,41.78
2022-12-09T22:14:25.817Z,44.17
2022-12-09T22:16:52.852Z,44.55
2022-12-09T22:19:21.090Z,43.55
2022-12-09T22:21:50.702Z,44.85
2022-12-09T22:24:18.758Z,42.83
2022-12-09T22:26:51.091Z,44.22
2022-12-09T22:29:19.750Z,42.00
2022-12-09T22:31:47.431Z,43.72
2022-12-09T22:34:20.221Z,40.70
2022-12-09T22:36:49.486Z,41.22
2022-12-09T22:39:19.798Z,41.90
2022-12-09T22:41:48.297Z,41.20
2022-12-09T22:44:20.120Z,41.08
2022-12-09T22:46:49.001Z,42.08
2022-12-09T22:49:18.068Z,44.45
2022-12-09T22:51:46.234Z,39.30
2022-12-09T22:54:13.610Z,44.05
2022-12-09T22:56:42.868Z,46.65
2022-12-09T22:59:10.006Z,47.10
2022-12-09T23:01:37.675Z,46.25
2022-12-09T23:04:06.931Z,45.78
2022-12-09T23:06:36.559Z,46.13
2022-12-09T23:09:04.076Z,48.03
2022-12-09T23:11:30.950Z,45.15
2022-12-09T23:13:59.859Z,44.67
2022-12-09T23:16:27.825Z,44.42
2022-12-09T23:18:59.172Z,44.63
2022-12-09T23:21:28.883Z,41.83
2022-12-09T23:23:59.514Z,43.30
2022-12-09T23:26:28.940Z,40.65
2022-12-09T23:28:57.743Z,43.35
2022-12-09T23:31:28.257Z,45.58
2022-12-09T23:33:56.350Z,44.22
2022-12-09T23:36:27.666Z,43.47
2022-12-09T23:38:54.735Z,43.88
2022-12-09T23:41:23.189Z,42.58
2022-12-09T23:43:51.028Z,44.58
2022-12-09T23:46:20.632Z,46.00
2022-12-09T23:48:49.992Z,44.78
2022-12-09T23:51:19.748Z,46.35
2022-12-09T23:53:48.404Z,44.25
2022-12-09T23:56:21.262Z,43.95
2022-12-09T23:58:52.865Z,47.67
